sensor_id;sensor_type;location;lat;lon;timestamp;P1;P2;P0
76238;PMS7003;65043;48.392;-4.472;2024-03-02T00:01:24;0.00;0.00;0.00
76238;PMS7003;65043;48.392;-4.472;2024-03-02T00:03:49;1.25;0.00;0.00
76238;PMS7003;65043;48.392;-4.472;2024-03-02T00:06:15;3.50;0.75;0.00
76238;PMS7003;65043;48.392;-4.472;2024-03-02T00:08:48;4.50;0.75;0.00
76238;PMS7003;65043;48.392;-4.472;2024-03-02T00:11:13;1.50;1.00;0.00
76238;PMS7003;65043;48.392;-4.472;2024-03-02T00:13:40;0.00;0.00;0.00
76238;PMS7003;65043;48.392;-4.472;2024-03-02T00:16:06;0.00;0.00;0.00
76238;PMS7003;65043;48.392;-4.472;2024-03-02T00:18:35;0.00;0.00;0.00
76238;PMS7003;65043;48.392;-4.472;2024-03-02T00:21:01;0.75;0.25;0.00
76238;PMS7003;65043;48.392;-4.472;2024-03-02T00:23:31;0.00;0.00;0.00
76238;PMS7003;65043;48.392;-4.472;2024-03-02T00:25:58;1.25;0.00;0.00
76238;PMS7003;65043;48.392;-4.472;2024-03-02T00:28:34;0.00;0.00;0.00
76238;PMS7003;65043;48.392;-4.472;2024-03-02T00:31:08;0.00;0.00;0.00
76238;PMS7003;65043;48.392;-4.472;2024-03-02T00:33:46;0.75;0.00;0.00
76238;PMS7003;65043;48.392;-4.472;2024-03-02T00:36:13;0.00;0.00;0.00
76238;PMS7003;65043;48.392;-4.472;2024-03-02T00:38:44;0.00;0.00;0.00
76238;PMS7003;65043;48.392;-4.472;2024-03-02T00:46:29;0.50;0.50;0.00
76238;PMS7003;65043;48.392;-4.472;2024-03-02T00:48:58;1.75;0.00;0.00
76238;PMS7003;65043;48.392;-4.472;2024-03-02T00:51:29;0.00;0.00;0.00
76238;PMS7003;65043;48.392;-4.472;2024-03-02T00:54:00;0.00;0.00;0.00
76238;PMS7003;65043;48.392;-4.472;2024-03-02T00:56:29;2.75;1.75;0.00
76238;PMS7003;65043;48.392;-4.472;2024-03-02T00:58:55;0.00;0.00;0.00
76238;PMS7003;65043;48.392;-4.472;2024-03-02T01:01:21;1.00;1.00;0.00
76238;PMS7003;65043;48.392;-4.472;2024-03-02T01:03:47;0.00;0.00;0.00
76238;PMS7003;65043;48.392;-4.472;2024-03-02T01:06:14;1.25;1.00;1.00
76238;PMS7003;65043;48.392;-4.472;2024-03-02T01:08:40;1.00;1.00;0.00
76238;PMS7003;65043;48.392;-4.472;2024-03-02T01:11:05;3.50;1.00;0.50
76238;PMS7003;65043;48.392;-4.472;2024-03-02T01:13:31;2.00;1.00;0.00
76238;PMS7003;65043;48.392;-4.472;2024-03-02T01:15:57;1.00;1.00;0.00
76238;PMS7003;65043;48.392;-4.472;2024-03-02T01:18:23;0.00;0.00;0.00
76238;PMS7003;65043;48.392;-4.472;2024-03-02T01:20:49;0.25;0.00;0.00
76238;PMS7003;65043;48.392;-4.472;2024-03-02T01:23:16;3.00;1.00;0.00
76238;PMS7003;65043;48.392;-4.472;2024-03-02T01:25:43;0.25;0.25;0.00
76238;PMS7003;65043;48.392;-4.472;2024-03-02T01:28:08;3.25;0.75;0.00
76238;PMS7003;65043;48.392;-4.472;2024-03-02T01:30:34;3.00;1.00;0.75
76238;PMS7003;65043;48.392;-4.472;2024-03-02T01:33:00;1.25;1.25;1.00
76238;PMS7003;65043;48.392;-4.472;2024-03-02T01:35:27;1.50;0.00;0.00
76238;PMS7003;65043;48.392;-4.472;2024-03-02T01:37:52;3.00;2.50;0.00
76238;PMS7003;65043;48.392;-4.472;2024-03-02T01:40:18;0.25;0.25;0.00
76238;PMS7003;65043;48.392;-4.472;2024-03-02T01:42:44;1.25;1.25;0.00
76238;PMS7003;65043;48.392;-4.472;2024-03-02T01:45:09;1.00;0.50;0.00
76238;PMS7003;65043;48.392;-4.472;2024-03-02T01:47:35;1.00;1.00;0.00
76238;PMS7003;65043;48.392;-4.472;2024-03-02T01:50:01;2.00;0.00;0.00
76238;PMS7003;65043;48.392;-4.472;2024-03-02T01:52:27;1.00;0.00;0.00
76238;PMS7003;65043;48.392;-4.472;2024-03-02T01:54:53;0.50;0.50;0.00
76238;PMS7003;65043;48.392;-4.472;2024-03-02T01:57:18;0.50;0.50;0.00
76238;PMS7003;65043;48.392;-4.472;2024-03-02T01:59:44;0.50;0.00;0.00
76238;PMS7003;65043;48.392;-4.472;2024-03-02T02:02:11;1.00;1.00;0.00
76238;PMS7003;65043;48.392;-4.472;2024-03-02T02:04:37;1.00;1.00;0.00
76238;PMS7003;65043;48.392;-4.472;2024-03-02T02:07:02;1.25;1.00;0.00
76238;PMS7003;65043;48.392;-4.472;2024-03-02T02:09:27;0.50;0.50;0.00
76238;PMS7003;65043;48.392;-4.472;2024-03-02T02:11:53;1.75;1.25;0.00
76238;PMS7003;65043;48.392;-4.472;2024-03-02T02:14:18;0.75;0.75;0.50
76238;PMS7003;65043;48.392;-4.472;2024-03-02T02:16:44;1.00;0.00;0.00
76238;PMS7003;65043;48.392;-4.472;2024-03-02T02:19:10;0.25;0.25;0.00
76238;PMS7003;65043;48.392;-4.472;2024-03-02T02:21:35;1.00;0.75;0.00
76238;PMS7003;65043;48.392;-4.472;2024-03-02T02:24:01;3.50;1.25;0.00
76238;PMS7003;65043;48.392;-4.472;2024-03-02T02:26:28;1.00;1.00;0.75
76238;PMS7003;65043;48.392;-4.472;2024-03-02T02:28:54;1.75;0.75;0.00
76238;PMS7003;65043;48.392;-4.472;2024-03-02T02:31:19;0.00;0.00;0.00
76238;PMS7003;65043;48.392;-4.472;2024-03-02T02:33:45;1.25;0.00;0.00
76238;PMS7003;65043;48.392;-4.472;2024-03-02T02:36:10;1.25;1.00;1.00
76238;PMS7003;65043;48.392;-4.472;2024-03-02T02:38:37;3.00;1.00;0.00
76238;PMS7003;65043;48.392;-4.472;2024-03-02T02:41:05;1.25;0.50;0.00
76238;PMS7003;65043;48.392;-4.472;2024-03-02T02:43:31;4.00;1.00;0.00
76238;PMS7003;65043;48.392;-4.472;2024-03-02T02:45:56;1.75;1.00;0.00
76238;PMS7003;65043;48.392;-4.472;2024-03-02T02:48:22;0.00;0.00;0.00
76238;PMS7003;65043;48.392;-4.472;2024-03-02T02:50:47;2.00;0.00;0.00
76238;PMS7003;65043;48.392;-4.472;2024-03-02T02:53:13;0.00;0.00;0.00
76238;PMS7003;65043;48.392;-4.472;2024-03-02T02:55:40;1.75;0.00;0.00
76238;PMS7003;65043;48.392;-4.472;2024-03-02T02:58:06;0.00;0.00;0.00
76238;PMS7003;65043;48.392;-4.472;2024-03-02T03:00:32;0.00;0.00;0.00
76238;PMS7003;65043;48.392;-4.472;2024-03-02T03:02:58;0.50;0.50;0.00
76238;PMS7003;65043;48.392;-4.472;2024-03-02T03:05:23;3.50;1.00;0.00
76238;PMS7003;65043;48.392;-4.472;2024-03-02T03:07:49;2.50;1.00;0.00
76238;PMS7003;65043;48.392;-4.472;2024-03-02T03:10:15;2.00;0.25;0.00
76238;PMS7003;65043;48.392;-4.472;2024-03-02T03:12:41;3.00;1.00;0.00
76238;PMS7003;65043;48.392;-4.472;2024-03-02T03:15:08;1.00;1.00;0.00
76238;PMS7003;65043;48.392;-4.472;2024-03-02T03:17:35;3.75;1.00;1.00
76238;PMS7003;65043;48.392;-4.472;2024-03-02T03:20:02;0.00;0.00;0.00
76238;PMS7003;65043;48.392;-4.472;2024-03-02T03:22:29;0.00;0.00;0.00
76238;PMS7003;65043;48.392;-4.472;2024-03-02T03:24:56;1.00;0.00;0.00
76238;PMS7003;65043;48.392;-4.472;2024-03-02T03:27:21;3.00;0.00;0.00
76238;PMS7003;65043;48.392;-4.472;2024-03-02T03:29:47;2.00;0.00;0.00
76238;PMS7003;65043;48.392;-4.472;2024-03-02T03:32:12;0.25;0.00;0.00
76238;PMS7003;65043;48.392;-4.472;2024-03-02T03:34:38;0.00;0.00;0.00
76238;PMS7003;65043;48.392;-4.472;2024-03-02T03:37:03;2.00;2.00;0.00
76238;PMS7003;65043;48.392;-4.472;2024-03-02T03:39:29;1.00;0.00;0.00
76238;PMS7003;65043;48.392;-4.472;2024-03-02T03:41:54;0.00;0.00;0.00
76238;PMS7003;65043;48.392;-4.472;2024-03-02T03:44:20;3.00;0.25;0.25
76238;PMS7003;65043;48.392;-4.472;2024-03-02T03:46:45;2.00;1.25;0.00
76238;PMS7003;65043;48.392;-4.472;2024-03-02T03:49:11;1.00;1.00;0.00
76238;PMS7003;65043;48.392;-4.472;2024-03-02T03:51:36;1.00;1.00;1.00
76238;PMS7003;65043;48.392;-4.472;2024-03-02T03:54:02;1.00;1.00;0.00
76238;PMS7003;65043;48.392;-4.472;2024-03-02T03:56:27;2.00;2.00;0.00
76238;PMS7003;65043;48.392;-4.472;2024-03-02T03:58:53;3.50;2.00;1.00
76238;PMS7003;65043;48.392;-4.472;2024-03-02T04:01:18;2.25;1.00;1.00
76238;PMS7003;65043;48.392;-4.472;2024-03-02T04:03:44;7.50;2.75;1.00
76238;PMS7003;65043;48.392;-4.472;2024-03-02T04:06:10;3.50;1.00;0.00
76238;PMS7003;65043;48.392;-4.472;2024-03-02T04:08:35;1.00;1.00;1.00
76238;PMS7003;65043;48.392;-4.472;2024-03-02T04:11:00;2.25;2.00;1.00
76238;PMS7003;65043;48.392;-4.472;2024-03-02T04:13:27;4.00;1.00;0.75
76238;PMS7003;65043;48.392;-4.472;2024-03-02T04:15:53;1.75;1.00;0.50
76238;PMS7003;65043;48.392;-4.472;2024-03-02T04:18:19;2.25;1.00;0.00
76238;PMS7003;65043;48.392;-4.472;2024-03-02T04:20:44;1.00;1.00;0.00
76238;PMS7003;65043;48.392;-4.472;2024-03-02T04:23:10;3.00;1.00;0.00
76238;PMS7003;65043;48.392;-4.472;2024-03-02T04:25:35;0.00;0.00;0.00
76238;PMS7003;65043;48.392;-4.472;2024-03-02T04:28:01;3.00;1.50;0.75
76238;PMS7003;65043;48.392;-4.472;2024-03-02T04:30:26;1.75;1.00;0.50
76238;PMS7003;65043;48.392;-4.472;2024-03-02T04:32:52;3.00;1.50;1.00
76238;PMS7003;65043;48.392;-4.472;2024-03-02T04:35:17;0.25;0.25;0.00
76238;PMS7003;65043;48.392;-4.472;2024-03-02T04:37:43;2.00;1.75;1.00
76238;PMS7003;65043;48.392;-4.472;2024-03-02T04:40:08;3.00;1.00;1.00
76238;PMS7003;65043;48.392;-4.472;2024-03-02T04:42:34;3.25;1.50;1.00
76238;PMS7003;65043;48.392;-4.472;2024-03-02T04:45:00;2.00;1.00;0.00
76238;PMS7003;65043;48.392;-4.472;2024-03-02T04:47:26;1.00;1.00;1.00
76238;PMS7003;65043;48.392;-4.472;2024-03-02T04:49:51;1.00;1.00;0.00
76238;PMS7003;65043;48.392;-4.472;2024-03-02T04:52:17;4.50;3.00;1.75
76238;PMS7003;65043;48.392;-4.472;2024-03-02T04:54:43;1.00;1.00;0.00
76238;PMS7003;65043;48.392;-4.472;2024-03-02T04:57:27;4.75;2.00;1.00
76238;PMS7003;65043;48.392;-4.472;2024-03-02T04:59:52;1.50;1.50;0.00
76238;PMS7003;65043;48.392;-4.472;2024-03-02T05:02:18;1.00;1.00;0.00
76238;PMS7003;65043;48.392;-4.472;2024-03-02T05:04:43;2.25;1.00;1.00
76238;PMS7003;65043;48.392;-4.472;2024-03-02T05:07:08;1.00;1.00;0.00
76238;PMS7003;65043;48.392;-4.472;2024-03-02T05:09:34;1.00;1.00;0.75
76238;PMS7003;65043;48.392;-4.472;2024-03-02T05:11:59;1.00;1.00;0.00
76238;PMS7003;65043;48.392;-4.472;2024-03-02T05:14:43;1.50;1.00;0.00
76238;PMS7003;65043;48.392;-4.472;2024-03-02T05:17:09;1.00;1.00;1.00
76238;PMS7003;65043;48.392;-4.472;2024-03-02T05:19:36;0.75;0.75;0.25
76238;PMS7003;65043;48.392;-4.472;2024-03-02T05:22:02;1.00;0.25;0.00
76238;PMS7003;65043;48.392;-4.472;2024-03-02T05:24:28;2.75;1.75;0.00
76238;PMS7003;65043;48.392;-4.472;2024-03-02T05:26:54;3.50;1.00;0.25
76238;PMS7003;65043;48.392;-4.472;2024-03-02T05:29:20;2.75;1.00;0.75
76238;PMS7003;65043;48.392;-4.472;2024-03-02T05:31:46;1.75;1.75;1.00
76238;PMS7003;65043;48.392;-4.472;2024-03-02T05:34:11;0.50;0.50;0.50
76238;PMS7003;65043;48.392;-4.472;2024-03-02T05:36:36;2.00;1.00;0.00
76238;PMS7003;65043;48.392;-4.472;2024-03-02T05:39:04;0.50;0.50;0.50
76238;PMS7003;65043;48.392;-4.472;2024-03-02T05:41:31;2.50;1.00;0.00
76238;PMS7003;65043;48.392;-4.472;2024-03-02T05:43:57;3.00;1.00;0.00
76238;PMS7003;65043;48.392;-4.472;2024-03-02T05:46:22;0.75;0.75;0.50
76238;PMS7003;65043;48.392;-4.472;2024-03-02T05:48:48;1.00;1.00;0.00
76238;PMS7003;65043;48.392;-4.472;2024-03-02T05:51:13;1.75;1.75;1.00
76238;PMS7003;65043;48.392;-4.472;2024-03-02T05:53:38;2.00;2.00;1.00
76238;PMS7003;65043;48.392;-4.472;2024-03-02T05:56:04;0.75;0.75;0.00
76238;PMS7003;65043;48.392;-4.472;2024-03-02T05:58:33;1.00;1.00;0.00
76238;PMS7003;65043;48.392;-4.472;2024-03-02T06:01:17;2.00;1.00;0.00
76238;PMS7003;65043;48.392;-4.472;2024-03-02T06:03:43;0.50;0.00;0.00
76238;PMS7003;65043;48.392;-4.472;2024-03-02T06:06:09;1.00;1.00;0.00
76238;PMS7003;65043;48.392;-4.472;2024-03-02T06:08:35;2.50;1.00;0.00
76238;PMS7003;65043;48.392;-4.472;2024-03-02T06:11:00;2.25;0.25;0.00
76238;PMS7003;65043;48.392;-4.472;2024-03-02T06:13:26;1.00;1.00;1.00
76238;PMS7003;65043;48.392;-4.472;2024-03-02T06:15:52;1.00;1.00;0.00
76238;PMS7003;65043;48.392;-4.472;2024-03-02T06:18:18;0.00;0.00;0.00
76238;PMS7003;65043;48.392;-4.472;2024-03-02T06:20:43;0.75;0.75;0.00
76238;PMS7003;65043;48.392;-4.472;2024-03-02T06:23:08;2.00;1.00;0.75
76238;PMS7003;65043;48.392;-4.472;2024-03-02T06:25:34;1.00;0.00;0.00
76238;PMS7003;65043;48.392;-4.472;2024-03-02T06:27:59;1.50;1.00;0.25
76238;PMS7003;65043;48.392;-4.472;2024-03-02T06:30:25;0.00;0.00;0.00
76238;PMS7003;65043;48.392;-4.472;2024-03-02T06:32:53;2.00;0.00;0.00
76238;PMS7003;65043;48.392;-4.472;2024-03-02T06:35:18;0.25;0.25;0.25
76238;PMS7003;65043;48.392;-4.472;2024-03-02T06:37:44;0.00;0.00;0.00
76238;PMS7003;65043;48.392;-4.472;2024-03-02T06:40:09;0.25;0.25;0.00
76238;PMS7003;65043;48.392;-4.472;2024-03-02T06:42:35;1.00;0.00;0.00
76238;PMS7003;65043;48.392;-4.472;2024-03-02T06:45:01;1.50;0.00;0.00
76238;PMS7003;65043;48.392;-4.472;2024-03-02T06:47:27;3.00;0.00;0.00
76238;PMS7003;65043;48.392;-4.472;2024-03-02T06:49:53;3.00;1.00;0.00
76238;PMS7003;65043;48.392;-4.472;2024-03-02T06:52:18;0.00;0.00;0.00
76238;PMS7003;65043;48.392;-4.472;2024-03-02T06:54:45;4.75;0.75;0.00
76238;PMS7003;65043;48.392;-4.472;2024-03-02T06:57:10;2.00;1.00;0.00
76238;PMS7003;65043;48.392;-4.472;2024-03-02T06:59:36;1.75;0.00;0.00
76238;PMS7003;65043;48.392;-4.472;2024-03-02T07:02:01;1.50;1.00;0.00
76238;PMS7003;65043;48.392;-4.472;2024-03-02T07:04:27;0.00;0.00;0.00
76238;PMS7003;65043;48.392;-4.472;2024-03-02T07:06:52;1.00;1.00;0.00
76238;PMS7003;65043;48.392;-4.472;2024-03-02T07:09:18;0.75;0.00;0.00
76238;PMS7003;65043;48.392;-4.472;2024-03-02T07:11:47;0.00;0.00;0.00
76238;PMS7003;65043;48.392;-4.472;2024-03-02T07:14:13;0.00;0.00;0.00
76238;PMS7003;65043;48.392;-4.472;2024-03-02T07:16:38;0.50;0.50;0.00
76238;PMS7003;65043;48.392;-4.472;2024-03-02T07:19:05;2.25;2.00;1.00
76238;PMS7003;65043;48.392;-4.472;2024-03-02T07:21:31;2.50;0.25;0.00
76238;PMS7003;65043;48.392;-4.472;2024-03-02T07:23:57;2.00;0.00;0.00
76238;PMS7003;65043;48.392;-4.472;2024-03-02T07:26:24;2.75;0.00;0.00
76238;PMS7003;65043;48.392;-4.472;2024-03-02T07:28:50;3.00;1.00;0.00
76238;PMS7003;65043;48.392;-4.472;2024-03-02T07:31:16;2.00;0.25;0.00
76238;PMS7003;65043;48.392;-4.472;2024-03-02T07:33:43;1.25;1.25;0.00
76238;PMS7003;65043;48.392;-4.472;2024-03-02T07:36:10;2.00;0.00;0.00
76238;PMS7003;65043;48.392;-4.472;2024-03-02T07:38:36;1.75;0.00;0.00
76238;PMS7003;65043;48.392;-4.472;2024-03-02T07:41:01;1.00;0.00;0.00
76238;PMS7003;65043;48.392;-4.472;2024-03-02T07:43:27;0.00;0.00;0.00
76238;PMS7003;65043;48.392;-4.472;2024-03-02T07:45:53;1.75;1.75;0.50
76238;PMS7003;65043;48.392;-4.472;2024-03-02T07:48:19;2.75;1.50;0.00
76238;PMS7003;65043;48.392;-4.472;2024-03-02T07:50:44;0.25;0.25;0.00
76238;PMS7003;65043;48.392;-4.472;2024-03-02T07:53:10;1.00;0.00;0.00
76238;PMS7003;65043;48.392;-4.472;2024-03-02T07:55:35;2.50;1.00;0.00
76238;PMS7003;65043;48.392;-4.472;2024-03-02T07:58:01;1.00;1.00;0.00
76238;PMS7003;65043;48.392;-4.472;2024-03-02T08:00:26;1.75;0.25;0.00
76238;PMS7003;65043;48.392;-4.472;2024-03-02T08:02:55;2.00;0.25;0.00
76238;PMS7003;65043;48.392;-4.472;2024-03-02T08:05:21;1.00;0.00;0.00
76238;PMS7003;65043;48.392;-4.472;2024-03-02T08:07:47;2.25;1.00;0.00
76238;PMS7003;65043;48.392;-4.472;2024-03-02T08:10:12;1.00;1.00;0.00
76238;PMS7003;65043;48.392;-4.472;2024-03-02T08:12:38;0.00;0.00;0.00
76238;PMS7003;65043;48.392;-4.472;2024-03-02T08:15:03;2.00;0.00;0.00
76238;PMS7003;65043;48.392;-4.472;2024-03-02T08:17:30;2.00;0.00;0.00
76238;PMS7003;65043;48.392;-4.472;2024-03-02T08:19:55;34.75;27.50;14.50
76238;PMS7003;65043;48.392;-4.472;2024-03-02T08:22:21;16.25;13.00;7.50
76238;PMS7003;65043;48.392;-4.472;2024-03-02T08:24:47;55.75;42.25;26.25
76238;PMS7003;65043;48.392;-4.472;2024-03-02T08:27:13;7.75;4.75;3.00
76238;PMS7003;65043;48.392;-4.472;2024-03-02T08:29:39;6.50;3.00;2.25
76238;PMS7003;65043;48.392;-4.472;2024-03-02T08:32:06;5.00;2.75;1.50
76238;PMS7003;65043;48.392;-4.472;2024-03-02T08:34:31;2.75;1.50;0.00
76238;PMS7003;65043;48.392;-4.472;2024-03-02T08:36:57;2.00;0.50;0.00
76238;PMS7003;65043;48.392;-4.472;2024-03-02T08:39:25;2.25;1.00;0.00
76238;PMS7003;65043;48.392;-4.472;2024-03-02T08:41:50;1.25;1.00;0.75
76238;PMS7003;65043;48.392;-4.472;2024-03-02T08:44:16;1.00;0.25;0.00
76238;PMS7003;65043;48.392;-4.472;2024-03-02T08:46:42;2.50;1.00;0.25
76238;PMS7003;65043;48.392;-4.472;2024-03-02T08:49:09;3.00;1.00;0.00
76238;PMS7003;65043;48.392;-4.472;2024-03-02T08:51:35;0.50;0.50;0.50
76238;PMS7003;65043;48.392;-4.472;2024-03-02T08:54:00;1.00;1.00;0.00
76238;PMS7003;65043;48.392;-4.472;2024-03-02T08:56:25;1.00;0.00;0.00
76238;PMS7003;65043;48.392;-4.472;2024-03-02T08:58:51;1.00;1.00;0.00
76238;PMS7003;65043;48.392;-4.472;2024-03-02T09:01:17;0.50;0.50;0.00
76238;PMS7003;65043;48.392;-4.472;2024-03-02T09:03:44;1.00;1.00;0.00
76238;PMS7003;65043;48.392;-4.472;2024-03-02T09:06:10;1.00;1.00;0.50
76238;PMS7003;65043;48.392;-4.472;2024-03-02T09:08:36;0.50;0.50;0.50
76238;PMS7003;65043;48.392;-4.472;2024-03-02T09:11:04;0.00;0.00;0.00
76238;PMS7003;65043;48.392;-4.472;2024-03-02T09:13:31;2.00;2.00;1.00
76238;PMS7003;65043;48.392;-4.472;2024-03-02T09:15:56;1.25;1.25;0.50
76238;PMS7003;65043;48.392;-4.472;2024-03-02T09:18:22;2.25;2.00;1.00
76238;PMS7003;65043;48.392;-4.472;2024-03-02T09:20:48;1.00;1.00;1.00
76238;PMS7003;65043;48.392;-4.472;2024-03-02T09:23:13;3.00;1.25;1.00
76238;PMS7003;65043;48.392;-4.472;2024-03-02T09:25:39;2.00;1.00;0.00
76238;PMS7003;65043;48.392;-4.472;2024-03-02T09:28:04;3.75;1.25;0.00
76238;PMS7003;65043;48.392;-4.472;2024-03-02T09:30:30;1.50;1.25;1.00
76238;PMS7003;65043;48.392;-4.472;2024-03-02T09:32:55;1.25;1.00;0.00
76238;PMS7003;65043;48.392;-4.472;2024-03-02T09:35:21;1.00;1.00;1.00
76238;PMS7003;65043;48.392;-4.472;2024-03-02T09:37:46;1.00;1.00;1.00
76238;PMS7003;65043;48.392;-4.472;2024-03-02T09:40:13;2.00;1.00;0.00
76238;PMS7003;65043;48.392;-4.472;2024-03-02T09:42:38;3.75;2.25;1.00
76238;PMS7003;65043;48.392;-4.472;2024-03-02T09:45:05;0.00;0.00;0.00
76238;PMS7003;65043;48.392;-4.472;2024-03-02T09:47:31;1.75;1.00;1.00
76238;PMS7003;65043;48.392;-4.472;2024-03-02T09:49:57;1.00;1.00;0.00
76238;PMS7003;65043;48.392;-4.472;2024-03-02T09:52:22;1.25;0.00;0.00
76238;PMS7003;65043;48.392;-4.472;2024-03-02T09:54:48;1.25;0.00;0.00
76238;PMS7003;65043;48.392;-4.472;2024-03-02T09:57:14;0.00;0.00;0.00
76238;PMS7003;65043;48.392;-4.472;2024-03-02T09:59:40;1.00;0.00;0.00
76238;PMS7003;65043;48.392;-4.472;2024-03-02T10:02:05;2.00;0.00;0.00
76238;PMS7003;65043;48.392;-4.472;2024-03-02T10:04:32;1.00;1.00;0.00
76238;PMS7003;65043;48.392;-4.472;2024-03-02T10:07:11;0.50;0.00;0.00
76238;PMS7003;65043;48.392;-4.472;2024-03-02T10:09:37;0.75;0.75;0.00
76238;PMS7003;65043;48.392;-4.472;2024-03-02T10:12:03;63.00;46.00;26.75
76238;PMS7003;65043;48.392;-4.472;2024-03-02T10:14:30;107.25;91.50;46.75
76238;PMS7003;65043;48.392;-4.472;2024-03-02T10:16:55;143.25;124.00;65.50
76238;PMS7003;65043;48.392;-4.472;2024-03-02T10:19:30;130.25;109.50;63.50
76238;PMS7003;65043;48.392;-4.472;2024-03-02T10:21:58;33.00;32.00;19.25
76238;PMS7003;65043;48.392;-4.472;2024-03-02T10:24:24;17.00;12.75;6.00
76238;PMS7003;65043;48.392;-4.472;2024-03-02T10:26:50;6.00;6.00;4.00
76238;PMS7003;65043;48.392;-4.472;2024-03-02T10:29:17;1.00;1.00;1.00
76238;PMS7003;65043;48.392;-4.472;2024-03-02T10:31:43;4.75;2.00;1.00
76238;PMS7003;65043;48.392;-4.472;2024-03-02T10:34:11;5.50;3.25;1.25
76238;PMS7003;65043;48.392;-4.472;2024-03-02T10:36:38;1.00;1.00;0.75
76238;PMS7003;65043;48.392;-4.472;2024-03-02T10:39:07;3.50;1.00;0.75
76238;PMS7003;65043;48.392;-4.472;2024-03-02T10:41:34;1.00;0.75;0.00
76238;PMS7003;65043;48.392;-4.472;2024-03-02T10:44:05;0.50;0.50;0.00
76238;PMS7003;65043;48.392;-4.472;2024-03-02T10:46:35;2.50;0.75;0.00
76238;PMS7003;65043;48.392;-4.472;2024-03-02T10:49:04;3.75;1.00;0.00
76238;PMS7003;65043;48.392;-4.472;2024-03-02T10:51:31;2.75;0.75;0.25
76238;PMS7003;65043;48.392;-4.472;2024-03-02T10:53:58;1.50;0.00;0.00
76238;PMS7003;65043;48.392;-4.472;2024-03-02T10:56:29;2.00;0.50;0.00
76238;PMS7003;65043;48.392;-4.472;2024-03-02T10:59:05;0.00;0.00;0.00
76238;PMS7003;65043;48.392;-4.472;2024-03-02T11:01:42;1.75;0.00;0.00
76238;PMS7003;65043;48.392;-4.472;2024-03-02T11:04:08;0.25;0.25;0.00
76238;PMS7003;65043;48.392;-4.472;2024-03-02T11:06:37;2.50;1.75;0.50
76238;PMS7003;65043;48.392;-4.472;2024-03-02T11:09:06;1.00;1.00;1.00
76238;PMS7003;65043;48.392;-4.472;2024-03-02T11:11:39;0.50;0.50;0.00
76238;PMS7003;65043;48.392;-4.472;2024-03-02T11:14:10;1.75;0.00;0.00
76238;PMS7003;65043;48.392;-4.472;2024-03-02T11:16:39;0.00;0.00;0.00
76238;PMS7003;65043;48.392;-4.472;2024-03-02T11:19:07;0.00;0.00;0.00
76238;PMS7003;65043;48.392;-4.472;2024-03-02T11:21:35;0.00;0.00;0.00
76238;PMS7003;65043;48.392;-4.472;2024-03-02T11:26:46;1.75;0.00;0.00
76238;PMS7003;65043;48.392;-4.472;2024-03-02T11:34:49;0.75;0.75;0.00
76238;PMS7003;65043;48.392;-4.472;2024-03-02T11:37:16;0.00;0.00;0.00
76238;PMS7003;65043;48.392;-4.472;2024-03-02T11:39:44;0.00;0.00;0.00
76238;PMS7003;65043;48.392;-4.472;2024-03-02T11:42:13;0.50;0.25;0.00
76238;PMS7003;65043;48.392;-4.472;2024-03-02T11:44:41;2.00;0.00;0.00
76238;PMS7003;65043;48.392;-4.472;2024-03-02T11:47:09;0.00;0.00;0.00
76238;PMS7003;65043;48.392;-4.472;2024-03-02T11:52:07;0.00;0.00;0.00
76238;PMS7003;65043;48.392;-4.472;2024-03-02T11:54:38;1.00;0.00;0.00
76238;PMS7003;65043;48.392;-4.472;2024-03-02T11:57:05;1.00;0.00;0.00
76238;PMS7003;65043;48.392;-4.472;2024-03-02T11:59:31;0.00;0.00;0.00
76238;PMS7003;65043;48.392;-4.472;2024-03-02T12:01:57;0.25;0.25;0.00
76238;PMS7003;65043;48.392;-4.472;2024-03-02T12:04:24;2.25;0.00;0.00
76238;PMS7003;65043;48.392;-4.472;2024-03-02T12:06:56;0.25;0.25;0.00
76238;PMS7003;65043;48.392;-4.472;2024-03-02T12:09:29;0.00;0.00;0.00
76238;PMS7003;65043;48.392;-4.472;2024-03-02T12:14:36;0.75;0.75;0.00
76238;PMS7003;65043;48.392;-4.472;2024-03-02T12:17:03;1.00;1.00;0.00
76238;PMS7003;65043;48.392;-4.472;2024-03-02T12:19:30;4.50;1.50;1.00
76238;PMS7003;65043;48.392;-4.472;2024-03-02T12:21:56;1.75;1.00;0.00
76238;PMS7003;65043;48.392;-4.472;2024-03-02T12:24:22;0.00;0.00;0.00
76238;PMS7003;65043;48.392;-4.472;2024-03-02T12:26:49;0.00;0.00;0.00
76238;PMS7003;65043;48.392;-4.472;2024-03-02T12:29:15;0.00;0.00;0.00
76238;PMS7003;65043;48.392;-4.472;2024-03-02T12:31:42;0.00;0.00;0.00
76238;PMS7003;65043;48.392;-4.472;2024-03-02T12:34:11;0.00;0.00;0.00
76238;PMS7003;65043;48.392;-4.472;2024-03-02T12:36:39;1.25;1.00;0.00
76238;PMS7003;65043;48.392;-4.472;2024-03-02T12:39:08;3.75;0.50;0.00
76238;PMS7003;65043;48.392;-4.472;2024-03-02T12:41:38;2.50;0.00;0.00
76238;PMS7003;65043;48.392;-4.472;2024-03-02T12:44:04;0.00;0.00;0.00
76238;PMS7003;65043;48.392;-4.472;2024-03-02T12:46:30;0.00;0.00;0.00
76238;PMS7003;65043;48.392;-4.472;2024-03-02T12:49:05;0.00;0.00;0.00
76238;PMS7003;65043;48.392;-4.472;2024-03-02T12:51:34;4.00;1.00;0.00
76238;PMS7003;65043;48.392;-4.472;2024-03-02T12:54:00;1.00;1.00;0.00
76238;PMS7003;65043;48.392;-4.472;2024-03-02T12:56:26;4.00;4.00;2.00
76238;PMS7003;65043;48.392;-4.472;2024-03-02T12:58:55;0.00;0.00;0.00
76238;PMS7003;65043;48.392;-4.472;2024-03-02T13:01:21;0.75;0.50;0.00
76238;PMS7003;65043;48.392;-4.472;2024-03-02T13:03:49;0.00;0.00;0.00
76238;PMS7003;65043;48.392;-4.472;2024-03-02T13:06:18;0.00;0.00;0.00
76238;PMS7003;65043;48.392;-4.472;2024-03-02T13:08:44;0.00;0.00;0.00
76238;PMS7003;65043;48.392;-4.472;2024-03-02T13:11:11;1.00;1.00;0.00
76238;PMS7003;65043;48.392;-4.472;2024-03-02T13:13:38;0.00;0.00;0.00
76238;PMS7003;65043;48.392;-4.472;2024-03-02T13:16:10;0.00;0.00;0.00
76238;PMS7003;65043;48.392;-4.472;2024-03-02T13:18:41;0.75;0.75;0.00
76238;PMS7003;65043;48.392;-4.472;2024-03-02T13:21:07;0.00;0.00;0.00
76238;PMS7003;65043;48.392;-4.472;2024-03-02T13:23:34;0.00;0.00;0.00
76238;PMS7003;65043;48.392;-4.472;2024-03-02T13:26:00;2.00;0.00;0.00
76238;PMS7003;65043;48.392;-4.472;2024-03-02T13:28:26;0.00;0.00;0.00
76238;PMS7003;65043;48.392;-4.472;2024-03-02T13:30:52;0.00;0.00;0.00
76238;PMS7003;65043;48.392;-4.472;2024-03-02T13:33:17;5.00;1.75;0.00
76238;PMS7003;65043;48.392;-4.472;2024-03-02T13:35:50;0.00;0.00;0.00
76238;PMS7003;65043;48.392;-4.472;2024-03-02T13:38:19;1.00;1.00;0.00
76238;PMS7003;65043;48.392;-4.472;2024-03-02T13:40:45;2.00;0.00;0.00
76238;PMS7003;65043;48.392;-4.472;2024-03-02T13:43:11;1.00;0.00;0.00
76238;PMS7003;65043;48.392;-4.472;2024-03-02T13:45:37;1.00;1.00;0.00
76238;PMS7003;65043;48.392;-4.472;2024-03-02T13:48:04;0.75;0.75;0.00
76238;PMS7003;65043;48.392;-4.472;2024-03-02T13:50:29;2.00;0.25;0.00
76238;PMS7003;65043;48.392;-4.472;2024-03-02T13:52:55;0.00;0.00;0.00
76238;PMS7003;65043;48.392;-4.472;2024-03-02T13:55:21;1.00;1.00;0.00
76238;PMS7003;65043;48.392;-4.472;2024-03-02T13:57:47;2.00;1.00;0.00
76238;PMS7003;65043;48.392;-4.472;2024-03-02T14:00:15;0.00;0.00;0.00
76238;PMS7003;65043;48.392;-4.472;2024-03-02T14:02:41;3.50;0.50;0.00
76238;PMS7003;65043;48.392;-4.472;2024-03-02T14:05:06;2.00;0.00;0.00
76238;PMS7003;65043;48.392;-4.472;2024-03-02T14:07:37;1.00;1.00;0.00
76238;PMS7003;65043;48.392;-4.472;2024-03-02T14:10:03;0.00;0.00;0.00
76238;PMS7003;65043;48.392;-4.472;2024-03-02T14:12:29;0.50;0.50;0.00
76238;PMS7003;65043;48.392;-4.472;2024-03-02T14:14:55;70.75;53.50;32.75
76238;PMS7003;65043;48.392;-4.472;2024-03-02T14:17:23;180.75;147.75;73.50
76238;PMS7003;65043;48.392;-4.472;2024-03-02T14:19:52;31.25;26.50;16.25
76238;PMS7003;65043;48.392;-4.472;2024-03-02T14:22:18;82.25;66.75;37.25
76238;PMS7003;65043;48.392;-4.472;2024-03-02T14:24:44;147.00;130.00;82.00